ADDS METAR Data INFO
IDs: Format: Raw Decoded Include TAF

Data at: 0331 UTC 16 Dec 2017

KEHO 160325Z AUTO 31003KT 10SM CLR 00/M05 A3011 RMK AO2 T00001053
KEHO 160305Z AUTO 28003KT 10SM CLR 00/M05 A3011 RMK AO2 T10051050
KEHO 160245Z AUTO 31003KT 10SM CLR 00/M05 A3010 RMK AO2 T00011049
KEHO 160225Z AUTO 26003KT 10SM CLR 00/M05 A3009 RMK AO2 T00031046
KEHO 160205Z AUTO 00000KT 10SM CLR 00/M04 A3008 RMK AO2 T10011044
KEHO 160145Z AUTO 28003KT 10SM CLR 01/M04 A3008 RMK AO2 T00101045
KEHO 160125Z AUTO 28003KT 10SM CLR 01/M04 A3007 RMK AO2 T00141045
KEHO 160105Z AUTO 31003KT 10SM CLR 02/M05 A3007 RMK AO2 T00221047
KEHO 160045Z AUTO 00000KT 10SM CLR 02/M05 A3006 RMK AO2 T00231046
KEHO 160025Z AUTO 00000KT 10SM CLR 03/M05 A3006 RMK AO2 T00281046
KEHO 160005Z AUTO 00000KT 10SM CLR 03/M04 A3005 RMK AO2 T00281045
KEHO 152345Z AUTO 33004KT 10SM CLR 03/M04 A3004 RMK AO2 T00331045
KEHO 152325Z AUTO 34006KT 10SM CLR 04/M04 A3003 RMK AO2 T00381040
KEHO 152305Z AUTO 32006KT 10SM CLR 05/M03 A3002 RMK AO2 T00471026
KEHO 152245Z AUTO 00000KT 10SM CLR 06/M02 A3001 RMK AO2 T00601019
KEHO 152225Z AUTO 00000KT 10SM CLR 06/M02 A2999 RMK AO2 T00621017
KEHO 152205Z AUTO 00000KT 10SM CLR 07/M02 A2997 RMK AO2 T00671018
KEHO 152145Z AUTO 00000KT 10SM CLR 07/M02 A2997 RMK AO2 T00701019
KEHO 152125Z AUTO 00000KT 10SM CLR 07/M02 A2996 RMK AO2 T00721020
KEHO 152105Z AUTO 27003KT 10SM CLR 08/M02 A2994 RMK AO2 T00751020
KEHO 152045Z AUTO 28003KT 10SM CLR 08/M02 A2994 RMK AO2 T00751023
KEHO 152025Z AUTO 27005KT 10SM CLR 08/M02 A2995 RMK AO2 T00751025
KEHO 152005Z AUTO 26004KT 10SM CLR 08/M02 A2996 RMK AO2 T00751025
KEHO 151945Z AUTO 30005KT 10SM CLR 08/M03 A2995 RMK AO2 T00751027
KEHO 151925Z AUTO 27005KT 10SM CLR 08/M02 A2994 RMK AO2 T00751025
KEHO 151905Z AUTO 00000KT 10SM CLR 07/M02 A2994 RMK AO2 T00711025
KEHO 151845Z AUTO 00000KT 10SM CLR 07/M03 A2994 RMK AO2 T00661026
KEHO 151825Z AUTO 31003KT 10SM CLR 07/M03 A2993 RMK AO2 T00671028
KEHO 151805Z AUTO 00000KT 10SM CLR 07/M03 A2996 RMK AO2 T00661030
KEHO 151745Z AUTO 00000KT 10SM CLR 06/M03 A2996 RMK AO2 T00601031
KEHO 151725Z AUTO 00000KT 10SM CLR 06/M03 A2996 RMK AO2 T00601030
KEHO 151705Z AUTO 00000KT 10SM CLR 06/M03 A2997 RMK AO2 T00561030
KEHO 151645Z AUTO 00000KT 10SM CLR 06/M03 A2996 RMK AO2 T00551033
KEHO 151625Z AUTO 04004KT 10SM CLR 05/M03 A2998 RMK AO2 T00511032
KEHO 151605Z AUTO 05003KT 10SM CLR 05/M03 A2999 RMK AO2 T00481034
KEHO 151545Z AUTO 00000KT 10SM CLR 04/M03 A3000 RMK AO2 T00431035
KEHO 151525Z AUTO 00000KT 10SM CLR 04/M04 A3001 RMK AO2 T00351038
KEHO 151505Z AUTO 05003KT 10SM CLR 03/M04 A3001 RMK AO2 T00311039
KEHO 151445Z AUTO 04004KT 10SM CLR 02/M04 A2999 RMK AO2 T00241039
KEHO 151425Z AUTO 03005KT 10SM CLR 02/M04 A2999 RMK AO2 T00201040
KEHO 151405Z AUTO 03006KT 10SM CLR 02/M04 A2999 RMK AO2 T00181043
KEHO 151345Z AUTO 03006KT 10SM CLR 01/M04 A2999 RMK AO2 T00141043
KEHO 151325Z AUTO 05003KT 10SM CLR 01/M04 A2998 RMK AO2 T00071045
KEHO 151305Z AUTO 00000KT 10SM CLR 00/M05 A2999 RMK AO2 T00011050
KEHO 151245Z AUTO 06004KT 10SM CLR 00/M05 A2999 RMK AO2 T00021051
KEHO 151225Z AUTO 05003KT 10SM CLR 00/M05 A2999 RMK AO2 T00021050
KEHO 151205Z AUTO 04005KT 10SM CLR 00/M05 A2998 RMK AO2 T00001050
KEHO 151145Z AUTO 04004KT 10SM CLR 00/M05 A2998 RMK AO2 T00041047
KEHO 151125Z AUTO 03004KT 10SM CLR 01/M05 A2999 RMK AO2 T00131046
KEHO 151105Z AUTO 02005KT 10SM CLR 02/M05 A2997 RMK AO2 T00161046
KEHO 151045Z AUTO 03005KT 10SM CLR 02/M04 A2997 RMK AO2 T00201045
KEHO 151025Z AUTO 03006KT 10SM CLR 02/M05 A2998 RMK AO2 T00201046
KEHO 151005Z AUTO 03008KT 10SM CLR 02/M04 A2997 RMK AO2 T00221045
KEHO 150945Z AUTO 03006KT 10SM CLR 03/M04 A2997 RMK AO2 T00251042
KEHO 150925Z AUTO 02006KT 10SM CLR 03/M04 A2999 RMK AO2 T00251039
KEHO 150905Z AUTO 02006KT 10SM CLR 03/M04 A2999 RMK AO2 T00271038
KEHO 150845Z AUTO 03007KT 10SM CLR 03/M03 A2999 RMK AO2 T00271035
KEHO 150825Z AUTO 03008KT 10SM CLR 03/M03 A2999 RMK AO2 T00301035
KEHO 150805Z AUTO 03006KT 10SM CLR 03/M03 A2998 RMK AO2 T00301033
KEHO 150745Z AUTO 02008KT 10SM CLR 03/M03 A2997 RMK AO2 T00301031
KEHO 150725Z AUTO 03007KT 10SM CLR 03/M03 A2998 RMK AO2 T00311030
KEHO 150705Z AUTO 02007KT 10SM CLR 03/M03 A2997 RMK AO2 T00311029
KEHO 150645Z AUTO 02006KT 10SM CLR 03/M03 A2997 RMK AO2 T00311030
KEHO 150625Z AUTO 02006KT 10SM CLR 03/M03 A2997 RMK AO2 T00311030
KEHO 150605Z AUTO 03007KT 10SM CLR 03/M03 A2996 RMK AO2 T00301030
KEHO 150545Z AUTO 01005KT 10SM CLR 03/M03 A2997 RMK AO2 T00271031
KEHO 150525Z AUTO 03007KT 10SM CLR 02/M03 A2996 RMK AO2 T00231030
KEHO 150505Z AUTO 03008KT 10SM CLR 03/M03 A2996 RMK AO2 T00271029
KEHO 150445Z AUTO 04007KT 10SM CLR 03/M03 A2996 RMK AO2 T00291028
KEHO 150425Z AUTO 03007KT 10SM CLR 03/M03 A2996 RMK AO2 T00281026
KEHO 150405Z AUTO 04007KT 10SM CLR 03/M03 A2996 RMK AO2 T00301026
KEHO 150345Z AUTO 04007KT 10SM CLR 03/M02 A2996 RMK AO2 T00321025
KEHO 150325Z AUTO 04006KT 10SM CLR 04/M02 A2996 RMK AO2 T00391025
KEHO 150305Z AUTO 05005KT 10SM CLR 04/M02 A2995 RMK AO2 T00371022
KEHO 150245Z AUTO 04006KT 10SM CLR 03/M02 A2994 RMK AO2 T00311021
KEHO 150225Z AUTO 04006KT 10SM CLR 03/M02 A2993 RMK AO2 T00331020
KEHO 150205Z AUTO 05004KT 10SM CLR 05/M02 A2992 RMK AO2 T00491022
KEHO 150145Z AUTO 00000KT 10SM CLR 07/M02 A2992 RMK AO2 T00731023
KEHO 150125Z AUTO 13003KT 10SM CLR 08/M02 A2992 RMK AO2 T00811024
KEHO 150105Z AUTO 00000KT 10SM CLR 07/M02 A2992 RMK AO2 T00711025
KEHO 150045Z AUTO 14003KT 10SM CLR 10/M03 A2991 RMK AO2 T00951026
KEHO 150025Z AUTO 13003KT 10SM CLR 09/M03 A2991 RMK AO2 T00941026
KEHO 150005Z AUTO 13003KT 10SM CLR 10/M03 A2991 RMK AO2 T00981028
KEHO 142345Z AUTO 00000KT 10SM CLR 10/M03 A2991 RMK AO2 T00951026
KEHO 142325Z AUTO 00000KT 10SM CLR 10/M03 A2990 RMK AO2 T00981026
KEHO 142305Z AUTO 00000KT 10SM CLR 10/M03 A2989 RMK AO2 T01031027
KEHO 142245Z AUTO 00000KT 10SM CLR 11/M03 A2989 RMK AO2 T01051029
KEHO 142225Z AUTO 18003KT 10SM CLR 12/M03 A2988 RMK AO2 T01151030
KEHO 142205Z AUTO 00000KT 10SM CLR 12/M03 A2988 RMK AO2 T01201031
KEHO 142145Z AUTO 20004KT 10SM CLR 13/M03 A2987 RMK AO2 T01251033
KEHO 142125Z AUTO 21007KT 10SM CLR 13/M03 A2987 RMK AO2 T01301031
KEHO 142105Z AUTO 22008KT 10SM CLR 14/M03 A2986 RMK AO2 T01351027
KEHO 142045Z AUTO 22008KT 10SM CLR 14/M02 A2986 RMK AO2 T01401025
KEHO 142025Z AUTO 23008KT 10SM CLR 14/M03 A2985 RMK AO2 T01411033
KEHO 142005Z AUTO 25006KT 10SM CLR 15/M04 A2984 RMK AO2 T01451043
KEHO 141945Z AUTO 27007KT 10SM CLR 14/M06 A2984 RMK AO2 T01431056
KEHO 141925Z AUTO 29005KT 10SM CLR 14/M05 A2983 RMK AO2 T01441050
KEHO 141905Z AUTO 28004KT 10SM CLR 14/M05 A2983 RMK AO2 T01401046
KEHO 141845Z AUTO 31004KT 10SM CLR 14/M04 A2983 RMK AO2 T01361044
KEHO 141825Z AUTO 25005KT 10SM CLR 13/M04 A2984 RMK AO2 T01331045
KEHO 141805Z AUTO 27006KT 10SM CLR 13/M04 A2984 RMK AO2 T01311045
KEHO 141745Z AUTO 29010KT 10SM CLR 13/M04 A2984 RMK AO2 T01291041
KEHO 141725Z AUTO 00000KT 10SM CLR 12/M04 A2984 RMK AO2 T01241042
KEHO 141705Z AUTO 28007KT 10SM CLR 12/M04 A2985 RMK AO2 T01221039
KEHO 141645Z AUTO 00000KT 10SM CLR 12/M03 A2986 RMK AO2 T01191033
KEHO 141625Z AUTO 25006KT 10SM CLR 12/M03 A2986 RMK AO2 T01181033
KEHO 141605Z AUTO 25010KT 10SM CLR 12/M03 A2987 RMK AO2 T01151032
KEHO 141545Z AUTO 00000KT 10SM CLR 10/M02 A2986 RMK AO2 T01001024